Oaks, Oklahoma
Current Conditions -  °F | °C
As of 4:35 PM on Thursday 23 Oct 2014 (Local Time) from KTQH Reporting Station
Broken Clouds Broken Clouds  
Wind Chill: 61°   Ceiling: 6000
Heat Index: 61°   Visibility: 10mi
Dew Point: 54°   Wind: 5mph
Humidity: 77%   Direction: 150°SSE
Pressure: 30.12"   Gusts: NA
Location:  36.17°N, 94.85°W
Report Text: KTQH 232135Z AUTO 15004KT 10SM SCT048 BKN060 16/12 A3012 RMK AO2
Loading
Personal Weather Stations






























Interactive Weather Map New forecast layout! Learn more

10-Day Weather Forecast

Advertisements
Track Severe Weather on mobile